sensor_id;sensor_type;location;lat;lon;timestamp;P1;durP1;ratioP1;P2;durP2;ratioP2
16294;SDS011;8255;49.560;8.244;2022-07-29T00:00:15;1.70;;;1.65;;
16294;SDS011;8255;49.560;8.244;2022-07-29T00:02:41;1.58;;;1.48;;
16294;SDS011;8255;49.560;8.244;2022-07-29T00:05:08;3.55;;;1.80;;
16294;SDS011;8255;49.560;8.244;2022-07-29T00:07:38;1.65;;;1.55;;
16294;SDS011;8255;49.560;8.244;2022-07-29T00:10:06;1.80;;;1.70;;
16294;SDS011;8255;49.560;8.244;2022-07-29T00:12:32;2.75;;;1.70;;
16294;SDS011;8255;49.560;8.244;2022-07-29T00:14:59;1.52;;;1.40;;
16294;SDS011;8255;49.560;8.244;2022-07-29T00:17:26;3.88;;;1.77;;
16294;SDS011;8255;49.560;8.244;2022-07-29T00:19:52;2.47;;;1.50;;
16294;SDS011;8255;49.560;8.244;2022-07-29T00:22:19;2.10;;;1.90;;
16294;SDS011;8255;49.560;8.244;2022-07-29T00:24:46;2.92;;;1.50;;
16294;SDS011;8255;49.560;8.244;2022-07-29T00:27:14;1.50;;;1.40;;
16294;SDS011;8255;49.560;8.244;2022-07-29T00:29:40;3.78;;;1.80;;
16294;SDS011;8255;49.560;8.244;2022-07-29T00:32:07;1.58;;;1.48;;
16294;SDS011;8255;49.560;8.244;2022-07-29T00:34:33;1.42;;;1.33;;
16294;SDS011;8255;49.560;8.244;2022-07-29T00:37:17;1.52;;;1.30;;
16294;SDS011;8255;49.560;8.244;2022-07-29T00:39:44;1.60;;;1.50;;
16294;SDS011;8255;49.560;8.244;2022-07-29T00:42:10;2.47;;;1.70;;
16294;SDS011;8255;49.560;8.244;2022-07-29T00:44:39;1.50;;;1.40;;
16294;SDS011;8255;49.560;8.244;2022-07-29T00:47:06;1.67;;;1.58;;
16294;SDS011;8255;49.560;8.244;2022-07-29T00:49:32;2.30;;;1.70;;
16294;SDS011;8255;49.560;8.244;2022-07-29T00:52:00;2.15;;;1.52;;
16294;SDS011;8255;49.560;8.244;2022-07-29T00:54:26;2.30;;;1.60;;
16294;SDS011;8255;49.560;8.244;2022-07-29T00:56:54;2.38;;;1.70;;
16294;SDS011;8255;49.560;8.244;2022-07-29T00:59:21;3.42;;;1.48;;
16294;SDS011;8255;49.560;8.244;2022-07-29T01:01:49;1.60;;;1.50;;
16294;SDS011;8255;49.560;8.244;2022-07-29T01:04:15;1.65;;;1.55;;
16294;SDS011;8255;49.560;8.244;2022-07-29T01:06:41;2.72;;;1.73;;
16294;SDS011;8255;49.560;8.244;2022-07-29T01:09:09;1.70;;;1.60;;
16294;SDS011;8255;49.560;8.244;2022-07-29T01:11:36;1.90;;;1.80;;
16294;SDS011;8255;49.560;8.244;2022-07-29T01:14:04;3.70;;;1.90;;
16294;SDS011;8255;49.560;8.244;2022-07-29T01:16:32;1.70;;;1.60;;
16294;SDS011;8255;49.560;8.244;2022-07-29T01:19:04;2.22;;;2.03;;
16294;SDS011;8255;49.560;8.244;2022-07-29T01:21:40;1.52;;;1.42;;
16294;SDS011;8255;49.560;8.244;2022-07-29T01:24:16;3.05;;;1.60;;
16294;SDS011;8255;49.560;8.244;2022-07-29T01:26:47;1.70;;;1.60;;
16294;SDS011;8255;49.560;8.244;2022-07-29T01:29:23;1.60;;;1.50;;
16294;SDS011;8255;49.560;8.244;2022-07-29T01:31:54;3.05;;;1.52;;
16294;SDS011;8255;49.560;8.244;2022-07-29T01:34:24;1.55;;;1.45;;
16294;SDS011;8255;49.560;8.244;2022-07-29T01:36:54;2.72;;;1.88;;
16294;SDS011;8255;49.560;8.244;2022-07-29T01:39:23;2.42;;;1.73;;
16294;SDS011;8255;49.560;8.244;2022-07-29T01:41:55;3.05;;;1.40;;
16294;SDS011;8255;49.560;8.244;2022-07-29T01:44:27;2.17;;;1.60;;
16294;SDS011;8255;49.560;8.244;2022-07-29T01:46:56;2.58;;;1.60;;
16294;SDS011;8255;49.560;8.244;2022-07-29T01:49:25;3.22;;;1.60;;
16294;SDS011;8255;49.560;8.244;2022-07-29T01:51:54;2.65;;;1.60;;
16294;SDS011;8255;49.560;8.244;2022-07-29T01:54:24;1.80;;;1.70;;
16294;SDS011;8255;49.560;8.244;2022-07-29T01:56:53;2.35;;;1.50;;
16294;SDS011;8255;49.560;8.244;2022-07-29T01:59:21;4.20;;;2.00;;
16294;SDS011;8255;49.560;8.244;2022-07-29T02:01:50;4.90;;;1.73;;
16294;SDS011;8255;49.560;8.244;2022-07-29T02:04:18;1.70;;;1.60;;
16294;SDS011;8255;49.560;8.244;2022-07-29T02:06:45;1.63;;;1.52;;
16294;SDS011;8255;49.560;8.244;2022-07-29T02:09:13;4.13;;;1.60;;
16294;SDS011;8255;49.560;8.244;2022-07-29T02:11:41;3.33;;;2.00;;
16294;SDS011;8255;49.560;8.244;2022-07-29T02:14:10;2.50;;;1.77;;
16294;SDS011;8255;49.560;8.244;2022-07-29T02:16:39;1.63;;;1.50;;
16294;SDS011;8255;49.560;8.244;2022-07-29T02:19:08;3.35;;;1.73;;
16294;SDS011;8255;49.560;8.244;2022-07-29T02:21:36;2.47;;;1.60;;
16294;SDS011;8255;49.560;8.244;2022-07-29T02:24:02;3.42;;;1.60;;
16294;SDS011;8255;49.560;8.244;2022-07-29T02:26:29;1.60;;;1.50;;
16294;SDS011;8255;49.560;8.244;2022-07-29T02:28:57;1.60;;;1.50;;
16294;SDS011;8255;49.560;8.244;2022-07-29T02:31:24;2.97;;;1.50;;
16294;SDS011;8255;49.560;8.244;2022-07-29T02:33:51;1.77;;;1.67;;
16294;SDS011;8255;49.560;8.244;2022-07-29T02:36:20;2.95;;;1.50;;
16294;SDS011;8255;49.560;8.244;2022-07-29T02:38:47;2.33;;;1.85;;
16294;SDS011;8255;49.560;8.244;2022-07-29T02:41:18;2.28;;;1.63;;
16294;SDS011;8255;49.560;8.244;2022-07-29T02:43:46;2.85;;;1.60;;
16294;SDS011;8255;49.560;8.244;2022-07-29T02:46:14;1.58;;;1.50;;
16294;SDS011;8255;49.560;8.244;2022-07-29T02:48:41;1.60;;;1.60;;
16294;SDS011;8255;49.560;8.244;2022-07-29T02:51:12;1.77;;;1.60;;
16294;SDS011;8255;49.560;8.244;2022-07-29T02:53:40;1.85;;;1.75;;
16294;SDS011;8255;49.560;8.244;2022-07-29T02:56:10;1.80;;;1.70;;
16294;SDS011;8255;49.560;8.244;2022-07-29T02:58:38;2.35;;;1.60;;
16294;SDS011;8255;49.560;8.244;2022-07-29T03:01:07;3.15;;;1.55;;
16294;SDS011;8255;49.560;8.244;2022-07-29T03:03:35;1.60;;;1.50;;
16294;SDS011;8255;49.560;8.244;2022-07-29T03:06:03;2.28;;;1.60;;
16294;SDS011;8255;49.560;8.244;2022-07-29T03:08:30;1.50;;;1.40;;
16294;SDS011;8255;49.560;8.244;2022-07-29T03:10:58;2.95;;;1.98;;
16294;SDS011;8255;49.560;8.244;2022-07-29T03:13:26;1.80;;;1.70;;
16294;SDS011;8255;49.560;8.244;2022-07-29T03:15:53;3.97;;;1.50;;
16294;SDS011;8255;49.560;8.244;2022-07-29T03:18:20;1.75;;;1.58;;
16294;SDS011;8255;49.560;8.244;2022-07-29T03:20:46;2.22;;;1.63;;
16294;SDS011;8255;49.560;8.244;2022-07-29T03:23:14;2.30;;;1.67;;
16294;SDS011;8255;49.560;8.244;2022-07-29T03:25:44;3.88;;;1.90;;
16294;SDS011;8255;49.560;8.244;2022-07-29T03:28:12;1.85;;;1.75;;
16294;SDS011;8255;49.560;8.244;2022-07-29T03:30:38;3.05;;;1.70;;
16294;SDS011;8255;49.560;8.244;2022-07-29T03:33:04;5.45;;;2.22;;
16294;SDS011;8255;49.560;8.244;2022-07-29T03:35:31;1.60;;;1.50;;
16294;SDS011;8255;49.560;8.244;2022-07-29T03:37:58;2.33;;;1.80;;
16294;SDS011;8255;49.560;8.244;2022-07-29T03:40:25;3.67;;;1.70;;
16294;SDS011;8255;49.560;8.244;2022-07-29T03:42:52;2.30;;;1.60;;
16294;SDS011;8255;49.560;8.244;2022-07-29T03:45:21;2.25;;;1.85;;
16294;SDS011;8255;49.560;8.244;2022-07-29T03:47:48;3.67;;;1.80;;
16294;SDS011;8255;49.560;8.244;2022-07-29T03:50:16;1.65;;;1.55;;
16294;SDS011;8255;49.560;8.244;2022-07-29T03:52:44;2.35;;;1.60;;
16294;SDS011;8255;49.560;8.244;2022-07-29T03:55:11;2.28;;;1.80;;
16294;SDS011;8255;49.560;8.244;2022-07-29T03:57:38;4.07;;;1.73;;
16294;SDS011;8255;49.560;8.244;2022-07-29T04:00:06;2.45;;;1.80;;
16294;SDS011;8255;49.560;8.244;2022-07-29T04:02:34;3.28;;;1.98;;
16294;SDS011;8255;49.560;8.244;2022-07-29T04:05:01;3.33;;;1.65;;
16294;SDS011;8255;49.560;8.244;2022-07-29T04:07:27;3.47;;;1.90;;
16294;SDS011;8255;49.560;8.244;2022-07-29T04:09:54;2.70;;;1.80;;
16294;SDS011;8255;49.560;8.244;2022-07-29T04:12:21;2.25;;;2.05;;
16294;SDS011;8255;49.560;8.244;2022-07-29T04:14:47;2.05;;;1.80;;
16294;SDS011;8255;49.560;8.244;2022-07-29T04:17:15;5.88;;;1.80;;
16294;SDS011;8255;49.560;8.244;2022-07-29T04:19:43;3.55;;;2.00;;
16294;SDS011;8255;49.560;8.244;2022-07-29T04:22:09;2.30;;;1.90;;
16294;SDS011;8255;49.560;8.244;2022-07-29T04:24:35;5.50;;;2.20;;
16294;SDS011;8255;49.560;8.244;2022-07-29T04:27:02;4.78;;;1.80;;
16294;SDS011;8255;49.560;8.244;2022-07-29T04:29:28;1.85;;;1.75;;
16294;SDS011;8255;49.560;8.244;2022-07-29T04:31:55;3.22;;;1.98;;
16294;SDS011;8255;49.560;8.244;2022-07-29T04:34:21;5.80;;;2.28;;
16294;SDS011;8255;49.560;8.244;2022-07-29T04:36:49;5.22;;;2.20;;
16294;SDS011;8255;49.560;8.244;2022-07-29T04:39:15;2.25;;;1.90;;
16294;SDS011;8255;49.560;8.244;2022-07-29T04:41:43;2.55;;;1.98;;
16294;SDS011;8255;49.560;8.244;2022-07-29T04:44:09;1.98;;;1.88;;
16294;SDS011;8255;49.560;8.244;2022-07-29T04:46:36;1.80;;;1.70;;
16294;SDS011;8255;49.560;8.244;2022-07-29T04:49:02;3.60;;;1.92;;
16294;SDS011;8255;49.560;8.244;2022-07-29T04:51:29;2.85;;;2.05;;
16294;SDS011;8255;49.560;8.244;2022-07-29T04:53:57;2.13;;;1.92;;
16294;SDS011;8255;49.560;8.244;2022-07-29T04:56:23;3.03;;;2.13;;
16294;SDS011;8255;49.560;8.244;2022-07-29T04:58:49;3.15;;;1.70;;
16294;SDS011;8255;49.560;8.244;2022-07-29T05:01:16;2.22;;;1.85;;
16294;SDS011;8255;49.560;8.244;2022-07-29T05:03:42;3.35;;;2.00;;
16294;SDS011;8255;49.560;8.244;2022-07-29T05:06:09;7.65;;;2.38;;
16294;SDS011;8255;49.560;8.244;2022-07-29T05:08:35;3.55;;;1.98;;
16294;SDS011;8255;49.560;8.244;2022-07-29T05:11:03;6.70;;;2.45;;
16294;SDS011;8255;49.560;8.244;2022-07-29T05:13:29;7.93;;;2.47;;
16294;SDS011;8255;49.560;8.244;2022-07-29T05:15:56;2.80;;;2.15;;
16294;SDS011;8255;49.560;8.244;2022-07-29T05:18:23;6.22;;;2.00;;
16294;SDS011;8255;49.560;8.244;2022-07-29T05:20:49;5.78;;;1.90;;
16294;SDS011;8255;49.560;8.244;2022-07-29T05:23:16;5.00;;;2.15;;
16294;SDS011;8255;49.560;8.244;2022-07-29T05:25:42;3.35;;;2.38;;
16294;SDS011;8255;49.560;8.244;2022-07-29T05:28:10;4.03;;;2.10;;
16294;SDS011;8255;49.560;8.244;2022-07-29T05:30:36;2.25;;;1.83;;
16294;SDS011;8255;49.560;8.244;2022-07-29T05:33:03;2.67;;;2.10;;
16294;SDS011;8255;49.560;8.244;2022-07-29T05:35:29;2.03;;;1.80;;
16294;SDS011;8255;49.560;8.244;2022-07-29T05:37:55;2.70;;;2.10;;
16294;SDS011;8255;49.560;8.244;2022-07-29T05:40:22;8.32;;;2.22;;
16294;SDS011;8255;49.560;8.244;2022-07-29T05:42:48;5.32;;;2.13;;
16294;SDS011;8255;49.560;8.244;2022-07-29T05:45:16;3.90;;;2.22;;
16294;SDS011;8255;49.560;8.244;2022-07-29T05:47:42;3.28;;;1.88;;
16294;SDS011;8255;49.560;8.244;2022-07-29T05:50:09;3.85;;;2.20;;
16294;SDS011;8255;49.560;8.244;2022-07-29T05:52:35;3.22;;;2.00;;
16294;SDS011;8255;49.560;8.244;2022-07-29T05:55:02;5.32;;;2.10;;
16294;SDS011;8255;49.560;8.244;2022-07-29T05:57:30;3.33;;;2.47;;
16294;SDS011;8255;49.560;8.244;2022-07-29T05:59:57;3.35;;;2.22;;
16294;SDS011;8255;49.560;8.244;2022-07-29T06:02:24;2.65;;;2.08;;
16294;SDS011;8255;49.560;8.244;2022-07-29T06:04:51;8.63;;;2.05;;
16294;SDS011;8255;49.560;8.244;2022-07-29T06:07:17;3.30;;;2.00;;
16294;SDS011;8255;49.560;8.244;2022-07-29T06:09:44;4.53;;;2.60;;
16294;SDS011;8255;49.560;8.244;2022-07-29T06:12:10;2.17;;;2.03;;
16294;SDS011;8255;49.560;8.244;2022-07-29T06:14:36;2.25;;;2.00;;
16294;SDS011;8255;49.560;8.244;2022-07-29T06:17:03;2.63;;;2.42;;
16294;SDS011;8255;49.560;8.244;2022-07-29T06:19:33;3.22;;;2.33;;
16294;SDS011;8255;49.560;8.244;2022-07-29T06:21:59;2.55;;;2.35;;
16294;SDS011;8255;49.560;8.244;2022-07-29T06:24:26;3.70;;;2.10;;
16294;SDS011;8255;49.560;8.244;2022-07-29T06:26:52;2.28;;;2.03;;
16294;SDS011;8255;49.560;8.244;2022-07-29T06:29:19;6.45;;;2.35;;
16294;SDS011;8255;49.560;8.244;2022-07-29T06:31:45;2.47;;;2.28;;
16294;SDS011;8255;49.560;8.244;2022-07-29T06:34:11;2.30;;;2.20;;
16294;SDS011;8255;49.560;8.244;2022-07-29T06:36:39;2.88;;;2.42;;
16294;SDS011;8255;49.560;8.244;2022-07-29T06:39:05;3.25;;;2.10;;
16294;SDS011;8255;49.560;8.244;2022-07-29T06:41:32;3.65;;;2.13;;
16294;SDS011;8255;49.560;8.244;2022-07-29T06:44:05;3.75;;;2.70;;
16294;SDS011;8255;49.560;8.244;2022-07-29T06:46:32;6.18;;;2.35;;
16294;SDS011;8255;49.560;8.244;2022-07-29T06:48:58;4.28;;;2.17;;
16294;SDS011;8255;49.560;8.244;2022-07-29T06:51:26;2.50;;;2.30;;
16294;SDS011;8255;49.560;8.244;2022-07-29T06:53:54;3.80;;;2.47;;
16294;SDS011;8255;49.560;8.244;2022-07-29T06:56:20;3.60;;;2.15;;
16294;SDS011;8255;49.560;8.244;2022-07-29T06:58:46;5.43;;;2.40;;
16294;SDS011;8255;49.560;8.244;2022-07-29T07:01:13;2.10;;;2.00;;
16294;SDS011;8255;49.560;8.244;2022-07-29T07:03:39;2.70;;;2.45;;
16294;SDS011;8255;49.560;8.244;2022-07-29T07:06:07;2.42;;;2.22;;
16294;SDS011;8255;49.560;8.244;2022-07-29T07:08:33;2.30;;;2.17;;
16294;SDS011;8255;49.560;8.244;2022-07-29T07:11:01;2.70;;;2.30;;
16294;SDS011;8255;49.560;8.244;2022-07-29T07:13:27;4.28;;;2.40;;
16294;SDS011;8255;49.560;8.244;2022-07-29T07:15:59;2.80;;;2.58;;
16294;SDS011;8255;49.560;8.244;2022-07-29T07:18:25;5.05;;;2.70;;
16294;SDS011;8255;49.560;8.244;2022-07-29T07:20:52;2.55;;;2.35;;
16294;SDS011;8255;49.560;8.244;2022-07-29T07:23:18;2.50;;;2.30;;
16294;SDS011;8255;49.560;8.244;2022-07-29T07:25:44;2.50;;;2.40;;
16294;SDS011;8255;49.560;8.244;2022-07-29T07:28:12;6.63;;;2.30;;
16294;SDS011;8255;49.560;8.244;2022-07-29T07:30:39;2.65;;;2.45;;
16294;SDS011;8255;49.560;8.244;2022-07-29T07:33:05;2.70;;;2.50;;
16294;SDS011;8255;49.560;8.244;2022-07-29T07:35:32;2.45;;;2.25;;
16294;SDS011;8255;49.560;8.244;2022-07-29T07:37:58;2.80;;;2.60;;
16294;SDS011;8255;49.560;8.244;2022-07-29T07:40:24;3.83;;;2.72;;
16294;SDS011;8255;49.560;8.244;2022-07-29T07:42:51;3.60;;;2.75;;
16294;SDS011;8255;49.560;8.244;2022-07-29T07:45:19;3.00;;;2.80;;
16294;SDS011;8255;49.560;8.244;2022-07-29T07:47:45;2.72;;;2.53;;
16294;SDS011;8255;49.560;8.244;2022-07-29T07:50:12;3.28;;;2.70;;
16294;SDS011;8255;49.560;8.244;2022-07-29T07:52:45;2.80;;;2.60;;
16294;SDS011;8255;49.560;8.244;2022-07-29T07:55:12;3.05;;;2.85;;
16294;SDS011;8255;49.560;8.244;2022-07-29T07:57:38;4.30;;;2.63;;
16294;SDS011;8255;49.560;8.244;2022-07-29T08:00:05;5.28;;;2.85;;
16294;SDS011;8255;49.560;8.244;2022-07-29T08:02:38;2.60;;;2.40;;
16294;SDS011;8255;49.560;8.244;2022-07-29T08:05:05;3.95;;;2.97;;
16294;SDS011;8255;49.560;8.244;2022-07-29T08:07:32;2.55;;;2.35;;
16294;SDS011;8255;49.560;8.244;2022-07-29T08:09:58;4.35;;;2.63;;
16294;SDS011;8255;49.560;8.244;2022-07-29T08:12:25;3.83;;;2.78;;
16294;SDS011;8255;49.560;8.244;2022-07-29T08:14:51;5.07;;;2.45;;
16294;SDS011;8255;49.560;8.244;2022-07-29T08:17:18;2.67;;;2.47;;
16294;SDS011;8255;49.560;8.244;2022-07-29T08:19:45;4.88;;;2.90;;
16294;SDS011;8255;49.560;8.244;2022-07-29T08:22:13;4.35;;;2.60;;
16294;SDS011;8255;49.560;8.244;2022-07-29T08:24:40;3.15;;;2.70;;
16294;SDS011;8255;49.560;8.244;2022-07-29T08:27:08;3.15;;;2.90;;
16294;SDS011;8255;49.560;8.244;2022-07-29T08:29:35;3.05;;;2.80;;
16294;SDS011;8255;49.560;8.244;2022-07-29T08:32:01;3.15;;;2.72;;
16294;SDS011;8255;49.560;8.244;2022-07-29T08:34:28;3.22;;;2.70;;
16294;SDS011;8255;49.560;8.244;2022-07-29T08:36:56;2.83;;;2.72;;
16294;SDS011;8255;49.560;8.244;2022-07-29T08:39:22;2.92;;;2.72;;
16294;SDS011;8255;49.560;8.244;2022-07-29T08:41:49;2.78;;;2.67;;
16294;SDS011;8255;49.560;8.244;2022-07-29T08:44:16;2.83;;;2.58;;
16294;SDS011;8255;49.560;8.244;2022-07-29T08:46:43;2.78;;;2.60;;
16294;SDS011;8255;49.560;8.244;2022-07-29T08:49:09;2.58;;;2.47;;
16294;SDS011;8255;49.560;8.244;2022-07-29T08:51:36;4.22;;;2.67;;
16294;SDS011;8255;49.560;8.244;2022-07-29T08:54:04;4.45;;;3.25;;
16294;SDS011;8255;49.560;8.244;2022-07-29T08:56:31;3.25;;;3.05;;
16294;SDS011;8255;49.560;8.244;2022-07-29T08:58:58;4.32;;;2.65;;
16294;SDS011;8255;49.560;8.244;2022-07-29T09:01:27;3.03;;;2.80;;
16294;SDS011;8255;49.560;8.244;2022-07-29T09:03:54;3.60;;;2.40;;
16294;SDS011;8255;49.560;8.244;2022-07-29T09:06:21;3.33;;;2.50;;
16294;SDS011;8255;49.560;8.244;2022-07-29T09:08:48;5.90;;;2.78;;
16294;SDS011;8255;49.560;8.244;2022-07-29T09:11:16;3.55;;;2.60;;
16294;SDS011;8255;49.560;8.244;2022-07-29T09:13:43;3.78;;;2.80;;
16294;SDS011;8255;49.560;8.244;2022-07-29T09:16:09;4.22;;;2.80;;
16294;SDS011;8255;49.560;8.244;2022-07-29T09:18:36;2.72;;;2.53;;
16294;SDS011;8255;49.560;8.244;2022-07-29T09:21:02;2.85;;;2.45;;
16294;SDS011;8255;49.560;8.244;2022-07-29T09:23:59;3.42;;;2.60;;
16294;SDS011;8255;49.560;8.244;2022-07-29T09:26:28;8.13;;;2.50;;
16294;SDS011;8255;49.560;8.244;2022-07-29T09:28:55;2.55;;;2.35;;
16294;SDS011;8255;49.560;8.244;2022-07-29T09:31:26;4.30;;;2.75;;
16294;SDS011;8255;49.560;8.244;2022-07-29T09:33:58;2.83;;;2.30;;
16294;SDS011;8255;49.560;8.244;2022-07-29T09:36:25;2.67;;;2.47;;
16294;SDS011;8255;49.560;8.244;2022-07-29T09:38:56;4.95;;;2.90;;
16294;SDS011;8255;49.560;8.244;2022-07-29T09:41:23;5.28;;;2.80;;
16294;SDS011;8255;49.560;8.244;2022-07-29T09:43:54;2.55;;;2.45;;
16294;SDS011;8255;49.560;8.244;2022-07-29T09:46:21;3.67;;;2.42;;
16294;SDS011;8255;49.560;8.244;2022-07-29T09:48:55;2.70;;;2.50;;
16294;SDS011;8255;49.560;8.244;2022-07-29T09:51:31;2.80;;;2.22;;
16294;SDS011;8255;49.560;8.244;2022-07-29T09:53:57;3.00;;;2.80;;
16294;SDS011;8255;49.560;8.244;2022-07-29T09:56:37;2.95;;;2.75;;
16294;SDS011;8255;49.560;8.244;2022-07-29T09:59:06;3.50;;;2.63;;
16294;SDS011;8255;49.560;8.244;2022-07-29T10:01:32;3.20;;;2.53;;
16294;SDS011;8255;49.560;8.244;2022-07-29T10:03:59;5.65;;;2.90;;
16294;SDS011;8255;49.560;8.244;2022-07-29T10:06:25;3.00;;;2.70;;
16294;SDS011;8255;49.560;8.244;2022-07-29T10:08:51;2.75;;;2.50;;
16294;SDS011;8255;49.560;8.244;2022-07-29T10:11:18;4.00;;;2.33;;
16294;SDS011;8255;49.560;8.244;2022-07-29T10:13:45;3.13;;;2.35;;
16294;SDS011;8255;49.560;8.244;2022-07-29T10:16:14;2.80;;;2.60;;
16294;SDS011;8255;49.560;8.244;2022-07-29T10:18:41;3.50;;;2.50;;
16294;SDS011;8255;49.560;8.244;2022-07-29T10:21:08;3.33;;;2.72;;
16294;SDS011;8255;49.560;8.244;2022-07-29T10:23:35;3.05;;;2.85;;
16294;SDS011;8255;49.560;8.244;2022-07-29T10:26:02;2.60;;;2.40;;
16294;SDS011;8255;49.560;8.244;2022-07-29T10:28:29;3.00;;;2.72;;
16294;SDS011;8255;49.560;8.244;2022-07-29T10:30:59;2.97;;;2.78;;
16294;SDS011;8255;49.560;8.244;2022-07-29T10:33:34;2.92;;;2.70;;
16294;SDS011;8255;49.560;8.244;2022-07-29T10:36:09;3.17;;;2.88;;
16294;SDS011;8255;49.560;8.244;2022-07-29T10:41:28;2.60;;;2.40;;
16294;SDS011;8255;49.560;8.244;2022-07-29T10:44:00;2.70;;;2.50;;
16294;SDS011;8255;49.560;8.244;2022-07-29T10:46:27;4.00;;;2.83;;
16294;SDS011;8255;49.560;8.244;2022-07-29T10:49:05;2.88;;;2.53;;
16294;SDS011;8255;49.560;8.244;2022-07-29T10:54:12;2.80;;;2.65;;
16294;SDS011;8255;49.560;8.244;2022-07-29T10:56:40;3.05;;;2.78;;
16294;SDS011;8255;49.560;8.244;2022-07-29T10:59:22;2.67;;;2.38;;
16294;SDS011;8255;49.560;8.244;2022-07-29T11:01:49;2.65;;;2.45;;
16294;SDS011;8255;49.560;8.244;2022-07-29T11:04:17;3.10;;;2.70;;
16294;SDS011;8255;49.560;8.244;2022-07-29T11:07:06;2.72;;;2.53;;
16294;SDS011;8255;49.560;8.244;2022-07-29T11:09:33;3.00;;;2.80;;
16294;SDS011;8255;49.560;8.244;2022-07-29T11:11:59;4.55;;;2.75;;
16294;SDS011;8255;49.560;8.244;2022-07-29T11:17:13;3.88;;;2.70;;
16294;SDS011;8255;49.560;8.244;2022-07-29T11:19:41;4.55;;;2.60;;
16294;SDS011;8255;49.560;8.244;2022-07-29T11:22:08;3.03;;;2.78;;
16294;SDS011;8255;49.560;8.244;2022-07-29T11:24:35;3.42;;;2.70;;
16294;SDS011;8255;49.560;8.244;2022-07-29T11:27:05;2.70;;;2.50;;
16294;SDS011;8255;49.560;8.244;2022-07-29T11:29:32;2.70;;;2.60;;
16294;SDS011;8255;49.560;8.244;2022-07-29T11:32:07;3.20;;;2.90;;
16294;SDS011;8255;49.560;8.244;2022-07-29T11:34:34;2.92;;;2.72;;
16294;SDS011;8255;49.560;8.244;2022-07-29T11:37:22;3.75;;;2.72;;
16294;SDS011;8255;49.560;8.244;2022-07-29T11:40:12;3.13;;;2.85;;
16294;SDS011;8255;49.560;8.244;2022-07-29T11:42:42;2.80;;;2.60;;
16294;SDS011;8255;49.560;8.244;2022-07-29T11:45:11;4.15;;;2.45;;
16294;SDS011;8255;49.560;8.244;2022-07-29T11:47:39;2.88;;;2.67;;
16294;SDS011;8255;49.560;8.244;2022-07-29T11:50:07;3.10;;;2.80;;
16294;SDS011;8255;49.560;8.244;2022-07-29T11:52:36;3.00;;;2.80;;
16294;SDS011;8255;49.560;8.244;2022-07-29T11:55:08;3.08;;;2.88;;
16294;SDS011;8255;49.560;8.244;2022-07-29T11:57:34;4.03;;;2.70;;
16294;SDS011;8255;49.560;8.244;2022-07-29T12:00:02;2.80;;;2.60;;
16294;SDS011;8255;49.560;8.244;2022-07-29T12:02:37;4.03;;;2.85;;
16294;SDS011;8255;49.560;8.244;2022-07-29T12:05:04;4.22;;;2.92;;
16294;SDS011;8255;49.560;8.244;2022-07-29T12:07:31;3.95;;;2.47;;
16294;SDS011;8255;49.560;8.244;2022-07-29T12:09:59;3.10;;;2.70;;
16294;SDS011;8255;49.560;8.244;2022-07-29T12:12:26;2.92;;;2.60;;
16294;SDS011;8255;49.560;8.244;2022-07-29T12:14:52;2.63;;;2.50;;
16294;SDS011;8255;49.560;8.244;2022-07-29T12:17:26;2.53;;;2.33;;
16294;SDS011;8255;49.560;8.244;2022-07-29T12:19:53;3.78;;;2.70;;
16294;SDS011;8255;49.560;8.244;2022-07-29T12:22:24;3.08;;;2.78;;
16294;SDS011;8255;49.560;8.244;2022-07-29T12:24:50;2.50;;;2.30;;
16294;SDS011;8255;49.560;8.244;2022-07-29T12:27:18;3.38;;;2.70;;
16294;SDS011;8255;49.560;8.244;2022-07-29T12:29:45;3.22;;;2.97;;
16294;SDS011;8255;49.560;8.244;2022-07-29T12:32:12;3.47;;;2.83;;
16294;SDS011;8255;49.560;8.244;2022-07-29T12:34:38;3.08;;;2.88;;
16294;SDS011;8255;49.560;8.244;2022-07-29T12:37:04;3.25;;;3.03;;
16294;SDS011;8255;49.560;8.244;2022-07-29T12:39:34;3.00;;;2.80;;
16294;SDS011;8255;49.560;8.244;2022-07-29T12:42:09;3.58;;;2.92;;
16294;SDS011;8255;49.560;8.244;2022-07-29T12:44:47;3.70;;;3.38;;
16294;SDS011;8255;49.560;8.244;2022-07-29T12:47:14;3.45;;;3.13;;
16294;SDS011;8255;49.560;8.244;2022-07-29T12:49:40;3.67;;;3.03;;
16294;SDS011;8255;49.560;8.244;2022-07-29T12:52:29;3.33;;;2.90;;
16294;SDS011;8255;49.560;8.244;2022-07-29T12:54:55;3.00;;;2.80;;
16294;SDS011;8255;49.560;8.244;2022-07-29T12:57:22;2.80;;;2.55;;
16294;SDS011;8255;49.560;8.244;2022-07-29T13:00:00;3.95;;;2.70;;
16294;SDS011;8255;49.560;8.244;2022-07-29T13:02:27;2.92;;;2.80;;
16294;SDS011;8255;49.560;8.244;2022-07-29T13:04:57;2.90;;;2.70;;
16294;SDS011;8255;49.560;8.244;2022-07-29T13:07:24;3.80;;;2.72;;
16294;SDS011;8255;49.560;8.244;2022-07-29T13:09:51;2.75;;;2.60;;
16294;SDS011;8255;49.560;8.244;2022-07-29T13:12:17;2.85;;;2.75;;
16294;SDS011;8255;49.560;8.244;2022-07-29T13:14:46;2.95;;;2.80;;
16294;SDS011;8255;49.560;8.244;2022-07-29T13:17:15;2.30;;;2.20;;
16294;SDS011;8255;49.560;8.244;2022-07-29T13:19:43;2.50;;;2.33;;
16294;SDS011;8255;49.560;8.244;2022-07-29T13:22:10;2.92;;;2.63;;
16294;SDS011;8255;49.560;8.244;2022-07-29T13:24:49;2.78;;;2.67;;
16294;SDS011;8255;49.560;8.244;2022-07-29T13:27:15;2.65;;;2.45;;
16294;SDS011;8255;49.560;8.244;2022-07-29T13:29:42;2.95;;;2.30;;
16294;SDS011;8255;49.560;8.244;2022-07-29T13:32:09;4.00;;;3.13;;
16294;SDS011;8255;49.560;8.244;2022-07-29T13:34:36;3.72;;;2.35;;
16294;SDS011;8255;49.560;8.244;2022-07-29T13:37:03;2.50;;;2.40;;
16294;SDS011;8255;49.560;8.244;2022-07-29T13:39:29;2.50;;;2.40;;
16294;SDS011;8255;49.560;8.244;2022-07-29T13:41:56;2.50;;;2.40;;
16294;SDS011;8255;49.560;8.244;2022-07-29T13:44:22;2.22;;;2.13;;
16294;SDS011;8255;49.560;8.244;2022-07-29T13:46:49;2.28;;;2.17;;
16294;SDS011;8255;49.560;8.244;2022-07-29T13:49:15;2.30;;;2.20;;
16294;SDS011;8255;49.560;8.244;2022-07-29T13:51:43;3.10;;;2.30;;
16294;SDS011;8255;49.560;8.244;2022-07-29T13:54:10;3.05;;;2.53;;
16294;SDS011;8255;49.560;8.244;2022-07-29T13:56:36;2.58;;;2.47;;
16294;SDS011;8255;49.560;8.244;2022-07-29T13:59:02;2.47;;;2.38;;
16294;SDS011;8255;49.560;8.244;2022-07-29T14:01:29;2.70;;;2.60;;
16294;SDS011;8255;49.560;8.244;2022-07-29T14:03:56;3.10;;;2.80;;
16294;SDS011;8255;49.560;8.244;2022-07-29T14:06:22;2.40;;;2.30;;
16294;SDS011;8255;49.560;8.244;2022-07-29T14:08:50;2.58;;;2.47;;
16294;SDS011;8255;49.560;8.244;2022-07-29T14:11:16;3.00;;;2.80;;
16294;SDS011;8255;49.560;8.244;2022-07-29T14:13:43;2.65;;;2.50;;
16294;SDS011;8255;49.560;8.244;2022-07-29T14:16:09;2.88;;;2.70;;
16294;SDS011;8255;49.560;8.244;2022-07-29T14:18:36;3.03;;;2.60;;
16294;SDS011;8255;49.560;8.244;2022-07-29T14:21:02;2.50;;;2.40;;
16294;SDS011;8255;49.560;8.244;2022-07-29T14:23:28;2.80;;;2.60;;
16294;SDS011;8255;49.560;8.244;2022-07-29T14:25:56;2.60;;;2.40;;
16294;SDS011;8255;49.560;8.244;2022-07-29T14:28:22;2.60;;;2.40;;
16294;SDS011;8255;49.560;8.244;2022-07-29T14:30:49;2.50;;;2.30;;
16294;SDS011;8255;49.560;8.244;2022-07-29T14:33:15;2.95;;;2.63;;
16294;SDS011;8255;49.560;8.244;2022-07-29T14:35:42;3.95;;;2.40;;
16294;SDS011;8255;49.560;8.244;2022-07-29T14:38:08;2.30;;;2.20;;
16294;SDS011;8255;49.560;8.244;2022-07-29T14:40:35;1.85;;;1.75;;
16294;SDS011;8255;49.560;8.244;2022-07-29T14:43:02;2.13;;;2.03;;
16294;SDS011;8255;49.560;8.244;2022-07-29T14:45:29;2.38;;;2.10;;
16294;SDS011;8255;49.560;8.244;2022-07-29T14:47:55;2.28;;;2.17;;
16294;SDS011;8255;49.560;8.244;2022-07-29T14:50:21;2.72;;;2.40;;
16294;SDS011;8255;49.560;8.244;2022-07-29T14:52:48;2.00;;;1.90;;
16294;SDS011;8255;49.560;8.244;2022-07-29T14:55:14;6.10;;;2.30;;
16294;SDS011;8255;49.560;8.244;2022-07-29T14:57:40;2.30;;;2.20;;
16294;SDS011;8255;49.560;8.244;2022-07-29T15:00:09;3.35;;;1.90;;
16294;SDS011;8255;49.560;8.244;2022-07-29T15:02:36;2.75;;;2.13;;
16294;SDS011;8255;49.560;8.244;2022-07-29T15:05:02;2.55;;;2.15;;
16294;SDS011;8255;49.560;8.244;2022-07-29T15:07:29;2.10;;;2.00;;
16294;SDS011;8255;49.560;8.244;2022-07-29T15:09:55;2.20;;;2.10;;
16294;SDS011;8255;49.560;8.244;2022-07-29T15:12:21;4.50;;;2.38;;